Airfield :
LOGIN :

Register | Disclaimer

   EN    FR    IT 

 










Legend :    VFR   Marginal VFR   IFR   Intensive IFR   Very Intensive IFR
Visi :
Ceiling :
>= 8 km
>= 3000ft
5 to 8 km
1000 to 3000 ft
1500m to 5 km
500 to 1000 ft
800 to 1500m
200 to 500 ft
< 800m
< 200 ft
Symbols :   Thunderstorms  Fog  Heavy snow  Heavy precipitations  Wind > 20 kt
SIGMETs :     Misc.  Thunderstorms  Icing  Turbulence  Mountain Waves  Volcanic Ashes







- Airport Elevation : 529 ft
- IATA code : CHR
- Download approach charts


LFLX - Chateauroux

CURRENT METAR :
  • 210000Z AUTO 08004KT CAVOK 16/07 Q1015 NOSIG

EXPIRED METARs :
  • 202330Z AUTO 07005KT CAVOK 16/07 Q1015 NOSIG
  • 202300Z AUTO 07003KT CAVOK 16/07 Q1015 NOSIG
  • 202230Z AUTO 09006KT CAVOK 16/06 Q1015 NOSIG
  • 202200Z AUTO 09005KT CAVOK 16/06 Q1015 NOSIG
  • 202130Z AUTO 09006KT CAVOK 17/06 Q1016 NOSIG

TAF TAF LFLX
Valid from the 21 at 00:00 until the 22 at 06:00 UTC


202300Z 2100/2206 09008KT CAVOK
BECMG 2110/2112 19008KT
PROB40
TEMPO 2116/2118 17015G30KT 4000 SHRA SCT045CB
PROB30
TEMPO 2203/2206 -SHRA SCT050TCU
No reported NOTAMs for that airfield.



MET'MAP, your aeronautical weather chart ! - Copyright ORBIFLY December 2007 - Disclaimer

ORBIFLY MET'MAP TEAM :

Programming & Development : Alexandra Zaïnal
Concept & Development : Baudouin d'Aumeries
Co-Development & Prog : Marc-Olivier Méhu
Technical & hardware support : Manuel Goepfert

Contact : metmap@orbifly.com




SOURCES & CREDITS :

   NOAA